Airport Name : Zurich

Other Name : Zurich

ICAO : LSZH

IATA : ZRH

FAA :

Latitude : 47.464722

Longitude : 8.549167

Country : Switzerland

Local Date and Time : 19 Jan 2021 15:15

 

TAF (Terminal Aerodrome Forecast)

TAF LSZH 191125Z 1912/2018 15005KT CAVOK TX03/1914Z TNM04/2006Z TX05/2014Z TEMPO 1914/1919 9999 SCT050 BECMG 2002/2005 4000 MIFG PROB30 2004/2007 1200 BCFG BECMG 2007/2010 CAVOK

 

METAR (METeorological Aerodrome Report)

LSZH 191350Z 20005KT 160V250 9999 SCT075 04/M05 Q1018 R88/19//// NOSIG

LSZH 191320Z 19008KT 9999 FEW075 03/M04 Q1018 R88/19//// NOSIG

LSZH 191250Z 20007KT 9999 FEW075 03/M04 Q1018 R88/19//// NOSIG

LSZH 191220Z 21008KT 180V240 CAVOK 02/M05 Q1019 R88/19//// NOSIG

LSZH 191150Z 22005KT 170V260 CAVOK 02/M05 Q1019 R88/19//// NOSIG

LSZH 191120Z 20006KT 160V240 CAVOK 01/M04 Q1020 R88/19//// NOSIG

LSZH 191050Z 21010KT 140V240 CAVOK 01/M04 Q1020 R88/19//// NOSIG

LSZH 191020Z 21010KT 9999 FEW018 01/M04 Q1021 R88/19//// NOSIG

To Charter a Jet Click here.